Time;durP1;ratioP1;P1;durP2;ratioP2;P2;SDS_P1;SDS_P2;PMS_P1;PMS_P2;Temp;Humidity;BMP_temperature;BMP_pressure;BME280_temperature;BME280_humidity;BME280_pressure;Samples;Min_cycle;Max_cycle;Signal;HPM_P1;HPM_P2
2022/07/02 00:02:27;;;;;;;10.10;9.40;;;13.50;99.90;;;;;;4899238;29;20200;-79
2022/07/02 00:04:59;;;;;;;10.00;9.30;;;13.50;99.90;;;;;;4881126;29;20294;-78
2022/07/02 00:07:27;;;;;;;10.20;9.50;;;13.50;99.90;;;;;;4897676;29;20200;-78
2022/07/02 00:09:55;;;;;;;10.13;9.53;;;13.50;99.90;;;;;;4880839;29;20302;-78
2022/07/02 00:12:22;;;;;;;10.47;9.77;;;13.50;99.90;;;;;;4880763;29;20208;-77
2022/07/02 00:14:53;;;;;;;10.07;9.47;;;13.50;99.90;;;;;;4896858;29;20223;-77
2022/07/02 00:17:20;;;;;;;10.00;9.40;;;13.50;99.90;;;;;;4880779;29;20272;-78
2022/07/02 00:19:48;;;;;;;9.80;9.20;;;13.50;99.90;;;;;;4897377;29;20208;-78
2022/07/02 00:22:16;;;;;;;9.83;9.23;;;13.50;99.90;;;;;;4880195;29;20210;-77
2022/07/02 00:24:43;;;;;;;10.17;9.57;;;13.40;99.90;;;;;;4880360;29;20797;-77
2022/07/02 00:27:11;;;;;;;10.40;9.70;;;13.40;99.90;;;;;;4894274;29;20253;-77
2022/07/02 00:29:44;;;;;;;10.40;9.80;;;13.40;99.90;;;;;;4880661;29;20293;-77
2022/07/02 00:32:11;;;;;;;10.77;10.07;;;13.40;99.90;;;;;;4876912;29;20204;-77
2022/07/02 00:34:39;;;;;;;9.97;9.37;;;13.30;99.90;;;;;;4897320;29;20674;-77
2022/07/02 00:37:08;;;;;;;9.93;9.33;;;13.30;99.90;;;;;;4897799;29;20207;-77
2022/07/02 00:39:36;;;;;;;10.17;9.40;;;13.30;99.90;;;;;;4880863;29;20199;-78
2022/07/02 00:42:05;;;;;;;9.87;9.27;;;13.30;99.90;;;;;;4897289;29;20201;-77
2022/07/02 00:44:32;;;;;;;9.90;9.30;;;13.30;99.90;;;;;;4897394;29;20228;-77
2022/07/02 00:47:03;;;;;;;9.83;9.23;;;13.30;99.90;;;;;;4884555;29;20211;-78
2022/07/02 00:49:31;;;;;;;10.20;9.50;;;13.20;99.90;;;;;;4884238;29;20230;-77
2022/07/02 00:51:58;;;;;;;10.10;9.50;;;13.20;99.90;;;;;;4901224;29;20245;-77
2022/07/02 00:54:26;;;;;;;10.27;9.57;;;13.20;99.90;;;;;;4884220;29;20292;-77
2022/07/02 00:56:53;;;;;;;9.93;9.33;;;13.20;99.90;;;;;;4884497;29;20295;-78
2022/07/02 00:59:21;;;;;;;9.63;9.03;;;13.20;99.90;;;;;;4884152;29;20259;-77
2022/07/02 01:01:48;;;;;;;9.50;8.90;;;13.10;99.90;;;;;;4901015;29;20212;-76
2022/07/02 01:04:17;;;;;;;9.73;9.13;;;13.10;99.90;;;;;;4900903;29;20709;-77
2022/07/02 01:06:44;;;;;;;10.20;9.60;;;13.10;99.90;;;;;;4884579;29;20200;-77
2022/07/02 01:12:01;;;;;;;9.40;8.80;;;13.00;99.90;;;;;;4882780;29;20216;-78
2022/07/02 01:14:28;;;;;;;10.00;9.40;;;13.00;99.90;;;;;;4884314;29;20595;-77
2022/07/02 01:16:55;;;;;;;10.20;9.50;;;12.90;99.90;;;;;;4880040;29;20211;-78
2022/07/02 01:19:24;;;;;;;10.27;9.67;;;12.90;99.90;;;;;;4901324;29;20732;-77
2022/07/02 01:22:12;;;;;;;9.90;9.30;;;12.80;99.90;;;;;;4883916;29;20206;-77
2022/07/02 01:24:39;;;;;;;10.60;9.90;;;12.80;99.90;;;;;;4900594;29;20804;-78
2022/07/02 01:27:06;;;;;;;10.00;9.40;;;12.70;99.90;;;;;;4884283;29;20682;-77
2022/07/02 01:29:34;;;;;;;9.80;9.20;;;12.80;99.90;;;;;;4900519;29;20279;-77
2022/07/02 01:32:01;;;;;;;9.97;9.30;;;12.70;99.90;;;;;;4901068;29;20194;-77
2022/07/02 01:34:28;;;;;;;10.27;9.67;;;12.70;99.90;;;;;;4883588;29;20286;-77
2022/07/02 01:36:55;;;;;;;10.20;9.50;;;12.70;99.90;;;;;;4900529;29;20354;-77
2022/07/02 01:39:25;;;;;;;10.17;9.57;;;12.60;99.90;;;;;;4900793;29;20255;-77
2022/07/02 01:41:52;;;;;;;10.30;9.70;;;12.60;99.90;;;;;;4900682;29;20203;-77
2022/07/02 01:44:19;;;;;;;10.30;9.70;;;12.50;99.90;;;;;;4883181;29;20712;-78
2022/07/02 01:46:46;;;;;;;10.10;9.50;;;12.60;99.90;;;;;;4883896;29;20210;-78
2022/07/02 01:49:13;;;;;;;10.10;9.50;;;12.50;99.90;;;;;;4900493;29;20293;-77
2022/07/02 01:51:40;;;;;;;10.37;9.70;;;12.50;99.90;;;;;;4884228;29;20255;-77
2022/07/02 01:54:08;;;;;;;9.90;9.30;;;12.50;99.90;;;;;;4883461;29;20727;-78
2022/07/02 01:56:36;;;;;;;9.93;9.33;;;12.50;99.90;;;;;;4882874;29;20214;-77
2022/07/02 01:59:04;;;;;;;10.43;9.73;;;12.40;99.90;;;;;;4879857;29;20205;-77
2022/07/02 02:01:31;;;;;;;10.20;9.50;;;12.40;99.90;;;;;;4883457;29;20210;-77
2022/07/02 02:03:58;;;;;;;10.20;9.60;;;12.40;99.90;;;;;;4899980;29;20234;-77
2022/07/02 02:06:25;;;;;;;10.13;9.43;;;12.40;99.90;;;;;;4900597;29;20202;-77
2022/07/02 02:08:52;;;;;;;10.13;9.43;;;12.30;99.90;;;;;;4900179;29;20274;-78
2022/07/02 02:11:19;;;;;;;10.27;9.63;;;12.30;99.90;;;;;;4883357;29;20205;-77
2022/07/02 02:13:47;;;;;;;10.63;9.93;;;12.30;99.90;;;;;;4883206;29;20221;-77
2022/07/02 02:16:14;;;;;;;10.57;9.97;;;12.30;99.90;;;;;;4876316;29;20210;-77
2022/07/02 02:18:40;;;;;;;10.50;9.90;;;12.20;99.90;;;;;;4900070;29;20247;-77
2022/07/02 02:21:07;;;;;;;10.50;9.80;;;12.20;99.90;;;;;;4899959;29;20259;-77
2022/07/02 02:23:34;;;;;;;10.77;10.07;;;12.20;99.90;;;;;;4899595;29;20615;-77
2022/07/02 02:26:01;;;;;;;10.43;9.83;;;12.20;99.90;;;;;;4882993;29;20209;-77
2022/07/02 02:28:28;;;;;;;10.70;10.00;;;12.10;99.90;;;;;;4899786;29;20221;-77
2022/07/02 02:30:56;;;;;;;11.20;10.40;;;12.10;99.90;;;;;;4899738;29;20206;-77
2022/07/02 02:33:23;;;;;;;11.20;10.50;;;12.00;99.90;;;;;;4899443;29;20253;-77
2022/07/02 02:35:49;;;;;;;10.67;9.97;;;12.00;99.90;;;;;;4882767;29;20206;-76
2022/07/02 02:38:16;;;;;;;10.83;10.13;;;12.00;99.90;;;;;;4899824;29;20201;-77
2022/07/02 02:40:43;;;;;;;10.90;10.20;;;12.00;99.90;;;;;;4899423;29;20211;-77
2022/07/02 02:43:10;;;;;;;10.77;10.07;;;12.00;99.90;;;;;;4887350;29;20254;-77
2022/07/02 02:45:37;;;;;;;10.70;10.00;;;11.90;99.90;;;;;;4895270;29;20394;-77
2022/07/02 02:48:05;;;;;;;10.97;10.30;;;11.90;99.90;;;;;;4882952;29;20205;-77
2022/07/02 02:50:32;;;;;;;10.60;10.00;;;11.90;99.90;;;;;;4899281;29;20217;-76
2022/07/02 02:52:59;;;;;;;11.03;10.33;;;11.90;99.90;;;;;;4899356;29;20216;-78
2022/07/02 02:55:26;;;;;;;10.70;10.10;;;11.80;99.90;;;;;;4897489;29;20230;-78
2022/07/02 02:57:53;;;;;;;11.27;10.50;;;11.80;99.90;;;;;;4866146;29;20299;-77
2022/07/02 03:00:20;;;;;;;10.93;10.27;;;11.80;99.90;;;;;;4898586;29;20202;-77
2022/07/02 03:02:47;;;;;;;11.00;10.20;;;11.80;99.90;;;;;;4879632;29;20565;-77
2022/07/02 03:05:15;;;;;;;10.97;10.27;;;11.70;99.90;;;;;;4892606;29;20308;-77
2022/07/02 03:07:42;;;;;;;10.13;9.53;;;11.70;99.90;;;;;;4868950;29;20209;-77
2022/07/02 03:10:09;;;;;;;11.00;10.10;;;11.70;99.90;;;;;;4879013;29;20225;-77
2022/07/02 03:12:36;;;;;;;10.70;10.07;;;11.70;99.90;;;;;;4899021;29;20221;-77
2022/07/02 03:15:03;;;;;;;10.70;10.10;;;11.60;99.90;;;;;;4898331;29;20221;-77
2022/07/02 03:17:30;;;;;;;10.63;10.03;;;11.60;99.90;;;;;;4881514;29;20230;-77
2022/07/02 03:19:57;;;;;;;11.43;10.57;;;11.70;99.90;;;;;;4898839;29;20201;-77
2022/07/02 03:22:25;;;;;;;11.43;10.63;;;11.60;99.90;;;;;;4882300;29;20209;-77
2022/07/02 03:24:52;;;;;;;10.63;10.03;;;11.60;99.90;;;;;;4895939;29;20351;-78
2022/07/02 03:27:18;;;;;;;10.93;10.13;;;11.60;99.90;;;;;;4881041;29;20260;-78
2022/07/02 03:29:45;;;;;;;10.97;10.30;;;11.60;99.90;;;;;;4881006;29;20253;-78
2022/07/02 03:32:12;;;;;;;11.00;10.20;;;11.60;99.90;;;;;;4897873;29;20965;-78
2022/07/02 03:34:39;;;;;;;11.20;10.50;;;11.60;99.90;;;;;;4898412;29;20229;-78
2022/07/02 03:37:06;;;;;;;10.73;10.03;;;11.60;99.90;;;;;;4898934;29;20233;-78
2022/07/02 03:39:34;;;;;;;11.03;10.13;;;11.60;99.90;;;;;;4899377;29;20213;-78
2022/07/02 03:42:01;;;;;;;11.40;10.70;;;11.60;99.90;;;;;;4897924;29;20328;-78
2022/07/02 03:44:27;;;;;;;11.30;10.60;;;11.60;99.90;;;;;;4881277;29;20226;-82
2022/07/02 03:46:54;;;;;;;10.90;10.27;;;11.60;99.90;;;;;;4895363;29;20215;-77
2022/07/02 03:49:21;;;;;;;10.97;10.30;;;11.60;99.90;;;;;;4898015;29;20639;-77
2022/07/02 03:51:48;;;;;;;11.13;10.43;;;11.70;99.90;;;;;;4881996;29;20216;-78
2022/07/02 03:54:14;;;;;;;11.00;10.40;;;11.60;99.90;;;;;;4899663;29;20260;-80
2022/07/02 03:56:43;;;;;;;10.83;10.23;;;11.70;99.90;;;;;;4899876;29;20205;-78
2022/07/02 03:59:09;;;;;;;11.03;10.33;;;11.70;99.90;;;;;;4881658;29;20739;-78
2022/07/02 04:01:36;;;;;;;11.07;10.37;;;11.70;99.90;;;;;;4883231;29;20204;-77
2022/07/02 04:04:03;;;;;;;11.30;10.60;;;11.70;99.90;;;;;;4883121;29;20230;-80
2022/07/02 04:06:30;;;;;;;11.23;10.53;;;11.80;99.90;;;;;;4900539;29;20636;-78
2022/07/02 04:08:57;;;;;;;11.10;10.50;;;11.80;99.90;;;;;;4895772;29;20262;-77
2022/07/02 04:11:23;;;;;;;11.23;10.53;;;11.80;99.90;;;;;;4900146;29;20284;-77
2022/07/02 04:13:52;;;;;;;11.30;10.60;;;11.90;99.90;;;;;;4896493;29;20225;-79
2022/07/02 04:16:18;;;;;;;11.30;10.63;;;11.90;99.90;;;;;;4876610;29;20676;-79
2022/07/02 04:18:45;;;;;;;11.60;10.90;;;12.00;99.90;;;;;;4897159;29;20206;-78
2022/07/02 04:21:12;;;;;;;11.40;10.70;;;12.00;99.90;;;;;;4902251;29;20209;-77
2022/07/02 04:23:39;;;;;;;11.10;10.50;;;12.10;99.90;;;;;;4886435;29;20213;-77
2022/07/02 04:26:06;;;;;;;12.10;11.30;;;12.20;99.90;;;;;;4904165;29;20663;-78
2022/07/02 04:28:33;;;;;;;11.50;10.90;;;12.30;99.90;;;;;;4903105;29;20286;-77
2022/07/02 04:31:01;;;;;;;11.70;11.00;;;12.40;99.90;;;;;;4896747;29;20237;-77
2022/07/02 04:33:27;;;;;;;11.40;10.80;;;12.40;99.90;;;;;;4886428;29;20293;-77
2022/07/02 04:35:54;;;;;;;11.53;10.83;;;12.50;99.90;;;;;;4903826;29;20209;-77
2022/07/02 04:38:21;;;;;;;11.77;11.07;;;12.60;99.90;;;;;;4903876;29;20409;-77
2022/07/02 04:40:48;;;;;;;11.63;10.93;;;12.70;99.90;;;;;;4903495;29;20239;-77
2022/07/02 04:43:15;;;;;;;11.13;10.53;;;12.80;99.90;;;;;;4903403;29;20620;-77
2022/07/02 04:45:41;;;;;;;11.20;10.50;;;12.90;99.90;;;;;;4887002;29;20740;-78
2022/07/02 04:48:10;;;;;;;11.73;11.03;;;13.10;99.90;;;;;;4886723;29;20204;-77
2022/07/02 04:50:36;;;;;;;11.57;10.87;;;13.20;99.90;;;;;;4887123;29;20226;-77
2022/07/02 04:53:03;;;;;;;11.87;11.17;;;13.40;99.90;;;;;;4886751;29;20206;-76
2022/07/02 04:55:30;;;;;;;11.70;11.00;;;14.10;99.90;;;;;;4886839;29;20240;-77
2022/07/02 04:57:57;;;;;;;11.50;10.80;;;14.60;99.90;;;;;;4903691;29;20660;-77
2022/07/02 05:00:24;;;;;;;10.70;10.00;;;14.70;99.90;;;;;;4903852;29;20196;-77
2022/07/02 05:02:50;;;;;;;5.50;5.00;;;14.70;99.90;;;;;;4903747;29;20577;-77
2022/07/02 05:05:19;;;;;;;10.07;9.47;;;14.70;99.90;;;;;;4903639;29;20220;-77
2022/07/02 05:07:45;;;;;;;6.60;6.20;;;14.60;99.90;;;;;;4883052;29;20249;-79
2022/07/02 05:10:12;;;;;;;5.73;5.37;;;14.70;99.90;;;;;;4878897;29;20268;-78
2022/07/02 05:12:40;;;;;;;6.00;5.60;;;14.70;99.90;;;;;;4903150;29;20213;-78
2022/07/02 05:15:07;;;;;;;4.23;3.83;;;14.90;99.90;;;;;;4902990;29;20227;-77
2022/07/02 05:17:34;;;;;;;5.00;4.70;;;14.90;99.90;;;;;;4879995;29;20286;-78
2022/07/02 05:20:01;;;;;;;3.80;3.60;;;15.10;99.90;;;;;;4897831;29;20278;-79
2022/07/02 05:22:29;;;;;;;7.07;6.60;;;15.30;99.90;;;;;;4885786;29;20228;-78
2022/07/02 05:24:56;;;;;;;8.70;8.20;;;15.40;99.90;;;;;;4898601;29;20215;-78
2022/07/02 05:27:23;;;;;;;4.80;4.40;;;15.60;99.90;;;;;;4875175;29;20211;-79
2022/07/02 05:29:50;;;;;;;4.77;4.37;;;15.60;99.90;;;;;;4885510;29;20493;-77
2022/07/02 05:32:16;;;;;;;8.93;8.43;;;15.60;99.90;;;;;;4885823;29;20259;-78
2022/07/02 05:34:43;;;;;;;8.80;8.30;;;15.60;99.90;;;;;;4901603;29;20229;-78
2022/07/02 05:37:10;;;;;;;5.60;5.20;;;15.60;99.90;;;;;;4899048;29;20628;-79
2022/07/02 05:39:38;;;;;;;6.07;5.67;;;15.70;99.90;;;;;;4880855;29;20294;-78
2022/07/02 05:42:06;;;;;;;3.90;3.70;;;16.00;99.90;;;;;;4901529;29;20203;-77
2022/07/02 05:44:32;;;;;;;5.77;5.40;;;16.30;99.90;;;;;;4900915;29;20220;-77
2022/07/02 05:46:59;;;;;;;5.37;5.00;;;16.90;99.90;;;;;;4883374;29;20701;-77
2022/07/02 05:49:26;;;;;;;3.53;3.23;;;17.70;99.90;;;;;;4883277;29;20839;-77
2022/07/02 05:51:53;;;;;;;6.73;6.23;;;18.40;99.90;;;;;;4900027;29;20202;-78
2022/07/02 05:54:20;;;;;;;4.67;2.87;;;19.10;99.90;;;;;;4882921;29;20636;-78
2022/07/02 05:56:48;;;;;;;3.43;3.23;;;19.60;99.90;;;;;;4899317;29;20200;-78
2022/07/02 05:59:15;;;;;;;9.83;9.23;;;20.10;99.90;;;;;;4879319;29;20244;-77
2022/07/02 06:01:42;;;;;;;3.27;3.03;;;20.60;99.90;;;;;;4900350;29;20208;-77
2022/07/02 06:04:08;;;;;;;6.03;5.63;;;20.90;99.90;;;;;;4899872;29;20224;-77
2022/07/02 06:09:20;;;;;;;8.47;7.77;;;21.50;99.90;;;;;;4899676;29;20610;-78
2022/07/02 06:11:48;;;;;;;8.47;7.97;;;21.80;99.90;;;;;;4900038;29;20264;-77
2022/07/02 06:14:14;;;;;;;7.77;7.27;;;22.20;99.90;;;;;;4899516;29;20643;-78
2022/07/02 06:16:41;;;;;;;2.80;2.60;;;22.20;99.90;;;;;;4900015;29;20209;-77
2022/07/02 06:19:08;;;;;;;4.50;4.20;;;22.60;99.90;;;;;;4899762;29;20257;-78
2022/07/02 06:21:35;;;;;;;5.73;5.23;;;22.60;99.90;;;;;;4882698;29;20207;-78
2022/07/02 06:24:02;;;;;;;7.37;6.97;;;22.90;99.90;;;;;;4899415;29;20664;-78
2022/07/02 06:26:29;;;;;;;7.00;6.60;;;22.90;99.90;;;;;;4882982;29;20196;-78
2022/07/02 06:28:57;;;;;;;9.90;9.20;;;22.90;99.90;;;;;;4899368;29;20239;-78
2022/07/02 06:31:24;;;;;;;6.27;5.87;;;23.20;99.90;;;;;;4893764;29;20276;-78
2022/07/02 06:33:50;;;;;;;7.87;7.47;;;22.90;99.90;;;;;;4883768;29;20228;-78
2022/07/02 06:36:21;;;;;;;8.90;8.20;;;23.10;99.90;;;;;;4884371;29;20619;-77
2022/07/02 06:38:48;;;;;;;8.83;8.33;;;23.60;99.90;;;;;;4884623;29;20284;-79
2022/07/02 06:43:59;;;;;;;7.80;7.30;;;23.90;99.90;;;;;;4898536;29;20272;-79
2022/07/02 06:46:26;;;;;;;5.87;5.47;;;24.00;99.90;;;;;;4885832;29;20201;-80
2022/07/02 06:48:53;;;;;;;3.80;3.60;;;24.10;99.90;;;;;;4897338;29;20208;-78
2022/07/02 06:51:20;;;;;;;5.40;5.10;;;24.30;99.90;;;;;;4903977;29;20272;-79
2022/07/02 06:53:47;;;;;;;5.50;5.10;;;24.10;99.90;;;;;;4885408;29;21596;-83
2022/07/02 06:56:13;;;;;;;5.43;5.03;;;24.40;99.90;;;;;;4905698;29;20197;-81
2022/07/02 06:58:40;;;;;;;5.13;4.83;;;24.30;99.90;;;;;;4889505;29;20205;-80
2022/07/02 07:01:09;;;;;;;7.20;6.63;;;24.60;99.90;;;;;;4902794;29;20256;-80
2022/07/02 07:03:36;;;;;;;8.97;8.47;;;24.40;99.90;;;;;;4886841;29;20738;-82
2022/07/02 07:06:03;;;;;;;8.60;8.10;;;24.60;99.90;;;;;;4884314;29;20260;-81
2022/07/02 07:08:29;;;;;;;9.10;8.60;;;24.90;99.90;;;;;;4899425;29;20203;-78
2022/07/02 07:10:57;;;;;;;9.10;8.50;;;24.90;99.90;;;;;;4877363;29;20315;-79
2022/07/02 07:13:24;;;;;;;7.50;7.10;;;24.80;99.90;;;;;;4899266;29;20203;-78
2022/07/02 07:15:51;;;;;;;7.00;6.60;;;24.70;99.90;;;;;;4899332;29;20461;-78
2022/07/02 07:18:19;;;;;;;7.13;6.73;;;25.20;99.90;;;;;;4899542;29;20200;-78
2022/07/02 07:20:47;;;;;;;7.50;7.10;;;25.20;99.90;;;;;;4899569;29;20203;-78
2022/07/02 07:23:14;;;;;;;7.80;7.20;;;24.90;99.90;;;;;;4882207;29;20208;-77
2022/07/02 07:25:41;;;;;;;7.57;7.17;;;24.90;99.90;;;;;;4900150;29;20307;-78
2022/07/02 07:28:08;;;;;;;7.97;7.40;;;25.00;99.90;;;;;;4899458;29;20678;-78
2022/07/02 07:30:35;;;;;;;8.50;7.90;;;25.30;99.90;;;;;;4882142;29;20212;-78
2022/07/02 07:33:01;;;;;;;7.97;7.47;;;25.50;99.90;;;;;;4899058;29;20627;-81
2022/07/02 07:35:29;;;;;;;3.37;3.07;;;24.80;99.90;;;;;;4898108;29;20299;-80
2022/07/02 07:38:00;;;;;;;2.73;2.53;;;24.90;99.90;;;;;;4881332;29;20503;-79
2022/07/02 07:40:27;;;;;;;2.63;2.43;;;25.10;99.90;;;;;;4894993;29;20227;-79
2022/07/02 07:42:54;;;;;;;2.80;2.60;;;25.30;99.90;;;;;;4881693;29;20205;-79
2022/07/02 07:45:21;;;;;;;3.90;2.73;;;25.50;99.90;;;;;;4897856;29;20221;-79
2022/07/02 07:47:47;;;;;;;7.80;7.20;;;25.40;99.90;;;;;;4865425;29;20213;-78
2022/07/02 07:50:14;;;;;;;8.13;7.50;;;25.40;99.90;;;;;;4884575;29;20213;-79
2022/07/02 07:52:42;;;;;;;3.03;2.77;;;25.00;99.90;;;;;;4880865;29;20209;-77
2022/07/02 07:55:09;;;;;;;2.53;2.30;;;25.00;99.90;;;;;;4863864;29;20263;-79
2022/07/02 07:57:36;;;;;;;2.30;2.00;;;24.90;99.90;;;;;;4896463;29;20200;-78
2022/07/02 08:00:04;;;;;;;5.87;5.27;;;25.20;99.90;;;;;;4897844;29;20208;-81
2022/07/02 08:02:40;;;;;;;7.70;7.10;;;25.40;99.90;;;;;;4898485;29;20204;-79
2022/07/02 08:05:08;;;;;;;2.30;2.17;;;25.60;99.90;;;;;;4898550;29;20227;-80
2022/07/02 08:07:36;;;;;;;2.30;2.20;;;25.70;99.90;;;;;;4881470;29;20204;-78
2022/07/02 08:10:05;;;;;;;4.60;4.33;;;26.00;99.90;;;;;;4896841;29;20209;-80
2022/07/02 08:12:32;;;;;;;7.43;7.00;;;25.70;99.90;;;;;;4880031;29;20208;-79
2022/07/02 08:15:00;;;;;;;7.47;7.00;;;25.30;99.90;;;;;;4878417;29;20273;-79
2022/07/02 08:17:28;;;;;;;7.90;7.30;;;25.50;99.90;;;;;;4896373;29;20215;-80
2022/07/02 08:19:55;;;;;;;2.50;2.30;;;25.40;99.90;;;;;;4879486;29;20211;-79
2022/07/02 08:22:22;;;;;;;2.40;2.20;;;25.60;99.90;;;;;;4896004;29;20200;-78
2022/07/02 08:24:49;;;;;;;2.00;1.90;;;25.80;99.90;;;;;;4878489;29;20228;-79
2022/07/02 08:27:17;;;;;;;4.13;3.93;;;26.20;99.90;;;;;;4880596;29;20265;-79
2022/07/02 08:29:44;;;;;;;2.00;1.90;;;26.50;99.90;;;;;;4881634;29;20205;-77
2022/07/02 08:32:11;;;;;;;8.20;7.70;;;26.70;99.90;;;;;;4898946;29;20248;-80
2022/07/02 08:34:38;;;;;;;4.57;4.23;;;26.90;99.90;;;;;;4898229;29;20232;-79
2022/07/02 08:37:05;;;;;;;2.00;1.90;;;27.00;99.90;;;;;;4881234;29;20240;-79
2022/07/02 08:39:32;;;;;;;4.87;4.60;;;27.00;99.90;;;;;;4881561;29;20213;-78
2022/07/02 08:42:00;;;;;;;4.63;4.43;;;27.00;99.90;;;;;;4881078;29;20208;-80
2022/07/02 08:44:29;;;;;;;5.17;4.77;;;27.10;99.90;;;;;;4897822;29;20228;-79
2022/07/02 08:46:57;;;;;;;2.00;1.90;;;26.80;99.90;;;;;;4881560;29;20212;-80
2022/07/02 08:49:23;;;;;;;1.97;1.87;;;26.80;99.90;;;;;;4898731;29;20232;-79
2022/07/02 08:51:56;;;;;;;6.93;6.53;;;27.10;99.90;;;;;;4881383;29;20765;-80
2022/07/02 08:54:23;;;;;;;6.27;5.97;;;27.20;99.90;;;;;;4897968;29;20319;-79
2022/07/02 08:56:51;;;;;;;6.53;6.17;;;27.00;99.90;;;;;;4898391;29;20264;-79
2022/07/02 08:59:18;;;;;;;1.97;1.70;;;26.50;99.90;;;;;;4881812;29;20625;-79
2022/07/02 09:01:48;;;;;;;1.90;1.80;;;26.50;99.90;;;;;;4881262;29;20208;-79
2022/07/02 09:04:15;;;;;;;2.30;1.80;;;26.80;99.90;;;;;;4881053;29;20224;-77
2022/07/02 09:06:44;;;;;;;5.27;4.87;;;27.10;99.90;;;;;;4883269;29;20212;-78
2022/07/02 09:09:10;;;;;;;1.80;1.70;;;26.90;99.40;;;;;;4899172;29;20547;-80
2022/07/02 09:11:37;;;;;;;2.30;2.10;;;26.90;99.20;;;;;;4901924;29;20271;-78
2022/07/02 09:14:05;;;;;;;1.77;1.67;;;27.00;99.30;;;;;;4901397;29;20742;-79
2022/07/02 09:16:33;;;;;;;1.87;1.73;;;27.00;99.90;;;;;;4884599;29;20256;-78
2022/07/02 09:19:01;;;;;;;2.83;2.60;;;27.40;99.90;;;;;;4884707;29;20742;-78
2022/07/02 09:21:28;;;;;;;4.30;4.10;;;27.30;98.70;;;;;;4901781;29;20189;-77
2022/07/02 09:23:54;;;;;;;6.70;6.40;;;27.60;99.90;;;;;;4901074;29;20221;-78
2022/07/02 09:26:23;;;;;;;6.57;6.20;;;27.30;96.20;;;;;;4884933;29;20221;-77
2022/07/02 09:28:59;;;;;;;1.90;1.80;;;27.10;97.40;;;;;;4884471;29;20205;-78
2022/07/02 09:31:26;;;;;;;1.60;1.60;;;27.50;97.10;;;;;;4885008;29;20222;-79
2022/07/02 09:33:53;;;;;;;1.70;1.70;;;27.60;98.80;;;;;;4884248;29;20229;-79
2022/07/02 09:36:21;;;;;;;1.80;1.70;;;28.00;99.00;;;;;;4876335;29;20201;-78
2022/07/02 09:38:50;;;;;;;4.37;4.17;;;28.30;99.10;;;;;;4899017;29;20293;-79
2022/07/02 09:41:20;;;;;;;6.43;6.03;;;28.30;97.60;;;;;;4901697;29;20329;-77
2022/07/02 09:43:52;;;;;;;6.70;6.40;;;28.50;97.90;;;;;;4900791;29;20228;-79
2022/07/02 09:46:21;;;;;;;3.43;3.20;;;28.40;96.70;;;;;;4900684;29;20196;-79
2022/07/02 09:48:48;;;;;;;4.77;4.47;;;28.30;96.40;;;;;;4900576;29;20200;-78
2022/07/02 09:51:16;;;;;;;2.97;2.77;;;27.80;96.30;;;;;;4901374;29;20642;-79
2022/07/02 09:53:56;;;;;;;6.80;6.40;;;27.60;94.70;;;;;;4884193;29;20209;-78
2022/07/02 09:56:24;;;;;;;5.90;5.50;;;27.40;95.20;;;;;;4897345;29;20192;-79
2022/07/02 09:58:52;;;;;;;2.20;2.10;;;27.80;95.40;;;;;;4883749;29;20264;-80
2022/07/02 10:01:20;;;;;;;6.03;5.73;;;27.80;95.60;;;;;;4884950;29;20201;-79
2022/07/02 10:03:52;;;;;;;6.70;6.30;;;27.90;96.10;;;;;;4904611;29;20286;-80
2022/07/02 10:06:18;;;;;;;6.37;6.07;;;27.90;93.50;;;;;;4886846;29;20204;-81
2022/07/02 10:08:46;;;;;;;6.30;5.90;;;27.60;96.50;;;;;;4902107;29;20212;-80
2022/07/02 10:11:15;;;;;;;5.90;5.60;;;27.80;97.40;;;;;;4886730;29;20217;-80
2022/07/02 10:13:43;;;;;;;6.27;5.87;;;27.70;95.10;;;;;;4902220;29;20212;-80
2022/07/02 10:16:14;;;;;;;6.00;5.70;;;27.90;94.40;;;;;;4885497;29;20292;-81
2022/07/02 10:18:42;;;;;;;6.20;5.90;;;27.80;95.30;;;;;;4884460;29;20209;-80
2022/07/02 10:21:11;;;;;;;5.90;5.60;;;27.60;93.60;;;;;;4902119;29;20252;-80
2022/07/02 10:23:39;;;;;;;6.20;5.90;;;27.80;96.40;;;;;;4884768;29;20212;-80
2022/07/02 10:26:06;;;;;;;5.90;5.60;;;27.60;93.00;;;;;;4902188;29;20249;-80
2022/07/02 10:28:34;;;;;;;3.03;2.90;;;26.90;93.20;;;;;;4885100;29;20204;-80
2022/07/02 10:31:02;;;;;;;5.70;5.40;;;27.00;95.00;;;;;;4884323;29;20225;-80
2022/07/02 10:33:35;;;;;;;5.47;5.13;;;27.10;95.30;;;;;;4900884;29;20629;-80
2022/07/02 10:36:03;;;;;;;5.70;5.40;;;27.20;95.70;;;;;;4901322;29;20204;-80
2022/07/02 10:38:32;;;;;;;5.60;5.30;;;27.30;97.10;;;;;;4884199;29;20746;-78
2022/07/02 10:40:59;;;;;;;7.73;5.30;;;27.30;94.70;;;;;;4901225;29;20209;-78
2022/07/02 10:43:28;;;;;;;5.73;5.40;;;26.50;95.80;;;;;;4883105;29;20755;-80
2022/07/02 10:46:05;;;;;;;6.03;5.70;;;26.50;96.10;;;;;;4877608;29;20205;-80
2022/07/02 10:48:34;;;;;;;5.80;5.50;;;26.30;95.00;;;;;;4900837;29;20200;-81
2022/07/02 10:51:01;;;;;;;5.70;5.40;;;26.40;95.70;;;;;;4882907;29;20212;-80
2022/07/02 10:53:30;;;;;;;5.70;5.30;;;26.20;96.10;;;;;;4898949;29;20229;-80
2022/07/02 10:56:02;;;;;;;5.70;5.40;;;25.90;94.80;;;;;;4900516;29;20406;-81
2022/07/02 10:58:30;;;;;;;5.90;5.60;;;25.80;95.30;;;;;;4880033;29;20516;-79
2022/07/02 11:01:08;;;;;;;5.43;5.20;;;25.80;96.00;;;;;;4900454;29;20216;-80
2022/07/02 11:03:36;;;;;;;5.80;5.50;;;26.00;97.00;;;;;;4898999;29;20212;-81
2022/07/02 11:06:05;;;;;;;5.60;5.30;;;26.00;95.70;;;;;;4882192;29;20232;-81
2022/07/02 11:08:54;;;;;;;5.23;5.00;;;25.80;94.20;;;;;;4883210;29;20204;-81
2022/07/02 11:11:37;;;;;;;5.20;4.90;;;25.70;94.30;;;;;;4894363;29;20228;-80
2022/07/02 11:14:06;;;;;;;5.70;5.40;;;25.50;95.90;;;;;;4896585;29;20555;-80
2022/07/02 11:16:37;;;;;;;5.60;5.30;;;25.40;94.90;;;;;;4882900;29;20250;-81
2022/07/02 11:19:06;;;;;;;6.00;5.70;;;25.20;95.50;;;;;;4882662;29;20687;-81
2022/07/02 11:21:33;;;;;;;5.60;5.30;;;25.30;96.60;;;;;;4899679;29;20221;-80
2022/07/02 11:24:01;;;;;;;5.50;5.20;;;25.40;96.00;;;;;;4899534;29;20220;-81
2022/07/02 11:26:28;;;;;;;5.23;5.03;;;25.10;96.60;;;;;;4899559;29;20678;-80
2022/07/02 11:29:02;;;;;;;5.70;5.40;;;25.30;95.20;;;;;;4895291;29;20818;-80
2022/07/02 11:31:28;;;;;;;5.43;5.13;;;25.10;96.50;;;;;;4879266;29;20224;-80
2022/07/02 11:33:57;;;;;;;5.30;5.10;;;25.10;95.20;;;;;;4893263;29;20225;-82
2022/07/02 11:36:25;;;;;;;5.77;5.37;;;24.90;96.90;;;;;;4898664;29;20192;-80
2022/07/02 11:38:53;;;;;;;5.57;5.27;;;24.90;97.00;;;;;;4882087;29;20208;-80
2022/07/02 11:41:22;;;;;;;5.40;5.10;;;25.00;97.90;;;;;;4898989;29;20196;-81
2022/07/02 11:43:50;;;;;;;5.50;5.20;;;25.10;97.10;;;;;;4898788;29;20272;-78
2022/07/02 11:46:20;;;;;;;5.60;5.30;;;25.10;97.90;;;;;;4874383;29;20204;-78
2022/07/02 11:48:47;;;;;;;5.80;5.50;;;24.80;96.40;;;;;;4881904;29;20298;-78
2022/07/02 11:51:19;;;;;;;5.90;5.60;;;24.70;96.90;;;;;;4881453;29;20535;-78
2022/07/02 11:53:57;;;;;;;6.00;5.70;;;24.70;97.60;;;;;;4878582;29;20672;-79
2022/07/02 11:56:24;;;;;;;5.67;5.37;;;24.70;97.60;;;;;;4867672;29;20204;-78
2022/07/02 11:58:52;;;;;;;2.40;2.30;;;24.70;97.50;;;;;;4876339;29;20743;-78
2022/07/02 12:01:23;;;;;;;2.00;1.80;;;24.60;97.60;;;;;;4898086;29;20243;-78
2022/07/02 12:03:52;;;;;;;5.70;5.33;;;24.60;98.90;;;;;;4880992;29;20225;-79
2022/07/02 12:06:19;;;;;;;5.50;5.20;;;24.70;98.80;;;;;;4895188;29;20670;-79
2022/07/02 12:08:46;;;;;;;5.67;5.37;;;24.80;98.40;;;;;;4894420;29;20257;-79
2022/07/02 12:11:17;;;;;;;5.50;5.20;;;24.70;99.10;;;;;;4881993;29;20294;-78
2022/07/02 12:13:45;;;;;;;5.50;5.20;;;24.90;99.90;;;;;;4880132;29;20219;-79
2022/07/02 12:16:13;;;;;;;5.50;5.20;;;24.90;98.70;;;;;;4894379;29;20208;-79
2022/07/02 12:18:41;;;;;;;5.90;5.60;;;24.90;98.10;;;;;;4891841;29;20224;-79
2022/07/02 12:21:10;;;;;;;2.70;2.60;;;25.00;97.90;;;;;;4891843;29;20264;-78
2022/07/02 12:23:43;;;;;;;5.95;5.65;;;25.10;99.00;;;;;;4898096;29;20879;-79
2022/07/02 12:26:11;;;;;;;5.43;5.13;;;25.00;98.40;;;;;;4881577;29;20204;-80
2022/07/02 12:31:23;;;;;;;5.83;5.43;;;25.10;99.40;;;;;;4874453;29;20579;-79
2022/07/02 12:33:56;;;;;;;5.50;5.20;;;24.90;99.50;;;;;;4898536;29;20227;-79
2022/07/02 12:36:22;;;;;;;5.40;5.10;;;24.80;99.90;;;;;;4882805;29;20228;-78
2022/07/02 12:38:49;;;;;;;5.70;5.30;;;24.90;99.90;;;;;;4882466;29;20208;-78
2022/07/02 12:41:16;;;;;;;5.47;5.17;;;24.80;99.70;;;;;;4900982;29;20204;-79
2022/07/02 12:43:54;;;;;;;5.70;5.30;;;24.60;99.50;;;;;;4885675;29;20201;-79
2022/07/02 12:46:21;;;;;;;5.80;5.50;;;24.70;99.70;;;;;;4901571;29;20702;-79
2022/07/02 12:48:47;;;;;;;5.40;5.10;;;24.80;99.90;;;;;;4902776;29;20585;-79
2022/07/02 12:51:14;;;;;;;5.60;5.30;;;24.80;99.90;;;;;;4885123;29;20264;-79
2022/07/02 12:53:41;;;;;;;5.70;5.40;;;24.80;99.90;;;;;;4884598;29;20709;-79
2022/07/02 12:56:10;;;;;;;6.07;5.57;;;24.90;99.90;;;;;;4885080;29;20670;-79